Elizabeth, IL

6:41 AM CDT on May 30, 2015 (GMT -0500)
IGRAM | | Change Station
CLOSE
Current Station
Personal Weather Station
Location: Elizabeth, IL
Elevation: 885 ft
Nearby Weather Stations

Elev 885 ft 42.32 °N, 90.22 °W | Updated 5 hours ago

Overcast
Overcast
78.8 °F
Feels Like 81 °F
N
0.0
Wind Variable Wind from SSE
Gusts 4.5 mph

Today
High -- | Low -- °F
--% Chance of Precip.
Yesterday
High -- | Low -- °F
Precip. -- in
5:27 AM 8:29 PM
Waxing Gibbous, 90% visible
Pressure 29.95 in
Visibility 10.0 miles
Clouds Overcast 1200 ft
Heat Index 81 °F
Dew Point 66.1 °F
Humidity 65%
Rainfall 0.00 in
Snow Depth Not available.
UV 0 out of 12
Pollen 3.70 out of 12
Air Quality Not available.
Flu Activity Sporadic
METAR KSFY 301115Z AUTO 20005KT 10SM OVC012 20/17 A2995 RMK AO2 T01990171

More Conditions Fewer Conditions

Pressure 29.95 in
Visibility 10.0 miles
Clouds Overcast 1200 ft
Heat Index 81 °F
Dew Point 66.1 °F
Humidity 65%
Rainfall 0.00 in
Snow Depth Not available.
UV 0 out of 12
Pollen 3.70 out of 12
Air Quality Not available.
Flu Activity Sporadic
METAR KSFY 301115Z AUTO 20005KT 10SM OVC012 20/17 A2995 RMK AO2 T01990171

More Conditions Fewer Conditions

10-Day Weather Forecast

Almanac

Astronomy

May. 30, 2015 Rise Set
Actual Time
Civil Twilight
Nautical Twilight
Astronomical Twilight
Moon
Length of Visible Light
Length of Day
Tomorrow will be .
, % of the Moon is Illuminated

Today's Extremes

State Highs State Lows

Community

WunderPhotos

Upload Photos

1,825,484 photos uploaded!

WunderBlogs® & News

Nearby

Air Quality

  Air Quality AQ Index Pollutant
Not available.

Snow Depth

Station Depth Elevation

Earthquake Activity

City Distance Mag. Time & Date
Minimum magnitude displayed is 2.5.

Coastal Water Temperatures

Place Temperature

Stations

Nearby Weather Stations

Station Location Temp. Windchill Dew Point Humidity Wind Precip. Elev Updated Type